Diablo — WDG2170 — position and weather

sailwx.info

Track history (hours):
 
Tides and Currents Weather Stations Pressure Air Temp Water Temp Dewpoint Dewpoint Depression Visibility Wind Speed Wind Dir Waves Ship Positions

Diablo

Owner: Harley Marine Services, Inc, Seattle, WA. More information available from US FCC via Universal Licensing System and Coast Guard Vessel Documentation Center.

Last reported at 2018-Jun-20 01:48 UTC. Time now 2018-Jun-20 05:44 UTC.
Position N 29°47' W 095°06'.

Length 24 m; draft 2.8 m.

Type: Tug. MMSI: 367512880.

Date/timePositionNaut miles runAvg speedWind from/ knotsBaromVisibWave heightAir tempDewpointWater temp
2018-Jun-20 01:48N 29°47' W 095°06'0 0.0
2018-Jun-20 01:24N 29°47' W 095°06'6 1.1
2018-Jun-19 19:42N 29°42' W 095°01'1 7.1
2018-Jun-19 19:30N 29°42' W 094°60'4 7.7
2018-Jun-19 19:00N 29°38' W 094°58'3 5.3
2018-Jun-19 18:30N 29°37' W 095°00'1 1.7
2018-Jun-19 18:00N 29°37' W 095°01'0 0.0
2018-Jun-19 17:30N 29°37' W 095°01'0 0.0
2018-Jun-19 17:00N 29°37' W 095°01'0 0.0
2018-Jun-19 16:30N 29°37' W 095°01'0 0.0
2018-Jun-19 16:00N 29°37' W 095°01'0 0.0
2018-Jun-19 15:30N 29°37' W 095°01'0 0.0
2018-Jun-19 15:00N 29°37' W 095°01'0 0.0
2018-Jun-19 14:30N 29°37' W 095°01'0 0.0
2018-Jun-19 14:00N 29°37' W 095°01'0 0.1
2018-Jun-19 13:30N 29°37' W 095°01'3 5.8
2018-Jun-19 13:00N 29°37' W 094°58'4 7.1
2018-Jun-19 12:26N 29°41' W 094°59'5 0.2
2018-Jun-18 04:19N 29°44' W 095°04'3 6.0
2018-Jun-18 03:49N 29°42' W 095°01'2 6.8
2018-Jun-18 03:29N 29°41' W 094°59'5 7.7
2018-Jun-18 02:48N 29°36' W 094°57'3 8.1
2018-Jun-18 02:28N 29°34' W 094°55'4 8.3
2018-Jun-18 02:00N 29°31' W 094°53'4 8.1
2018-Jun-18 01:30N 29°27' W 094°51'4 8.0
2018-Jun-18 01:00N 29°23' W 094°49'2 4.0
2018-Jun-18 00:30N 29°22' W 094°51'2 3.5
2018-Jun-17 23:49N 29°22' W 094°53'0 0.0
2018-Jun-17 23:28N 29°22' W 094°53'0 0.0
2018-Jun-17 22:52N 29°22' W 094°53'0 0.0
2018-Jun-17 21:37N 29°22' W 094°53'0 0.0
2018-Jun-17 21:28N 29°22' W 094°53'0 0.0
2018-Jun-17 20:52N 29°22' W 094°53'0 0.0
2018-Jun-17 20:28N 29°22' W 094°53'0 0.0
2018-Jun-17 19:58N 29°22' W 094°53'0 0.0
2018-Jun-17 19:30N 29°22' W 094°53'1 1.7
2018-Jun-17 18:54N 29°23' W 094°53'3 7.9
2018-Jun-17 18:31N 29°22' W 094°49'4 7.0
2018-Jun-17 18:01N 29°19' W 094°47'1 2.6
2018-Jun-17 17:30N 29°19' W 094°48'0 0.0
2018-Jun-17 17:00N 29°19' W 094°48'0 0.0
2018-Jun-17 16:30N 29°19' W 094°48'0 0.0
2018-Jun-17 16:00N 29°19' W 094°48'1 0.1
2018-Jun-17 03:22N 29°19' W 094°47'0 0.0
2018-Jun-17 02:55N 29°19' W 094°47'0 0.0
2018-Jun-17 02:28N 29°19' W 094°47'0 0.0
2018-Jun-17 01:58N 29°19' W 094°47'0 0.0
2018-Jun-17 01:28N 29°19' W 094°47'0 0.0
2018-Jun-17 00:58N 29°19' W 094°47'0 0.0
2018-Jun-17 00:28N 29°19' W 094°47'0 0.0
2018-Jun-16 23:55N 29°19' W 094°47'0 0.0
2018-Jun-16 23:28N 29°19' W 094°47'0 0.0
2018-Jun-16 23:00N 29°19' W 094°47'0 0.0
2018-Jun-16 22:30N 29°19' W 094°47'0 0.0
2018-Jun-16 21:57N 29°19' W 094°47'0 0.0
2018-Jun-16 21:30N 29°19' W 094°47'0 0.0
2018-Jun-16 21:00N 29°19' W 094°47'0 0.0
2018-Jun-16 20:30N 29°19' W 094°47'0 0.0
2018-Jun-16 20:01N 29°19' W 094°47'0 0.0
2018-Jun-16 19:30N 29°19' W 094°47'1 2.1
2018-Jun-16 18:56N 29°19' W 094°48'0 0.0
2018-Jun-16 18:29N 29°19' W 094°48'0 0.0
2018-Jun-16 17:17N 29°19' W 094°48'0 0.0
2018-Jun-16 17:00N 29°19' W 094°48'0 0.0
2018-Jun-16 16:23N 29°18' W 094°48'0 0.0
2018-Jun-16 15:59N 29°19' W 094°48'0 0.0
2018-Jun-16 15:29N 29°19' W 094°48'0 0.0
2018-Jun-16 14:59N 29°19' W 094°48'0 0.0
2018-Jun-16 14:30N 29°19' W 094°48'0 0.0
2018-Jun-16 14:00N 29°19' W 094°48'0 0.0
2018-Jun-16 13:30N 29°19' W 094°48'0 0.0
2018-Jun-16 12:58N 29°19' W 094°48'0 0.6
2018-Jun-16 12:30N 29°19' W 094°48'0 0.2
2018-Jun-16 12:00N 29°19' W 094°48'0 0.0
2018-Jun-16 07:01N 29°18' W 094°48'0 0.0
2018-Jun-16 06:22N 29°18' W 094°48'0 0.0
2018-Jun-16 06:00N 29°18' W 094°48'0 0.0
2018-Jun-16 05:30N 29°18' W 094°48'0 0.0
2018-Jun-16 04:59N 29°18' W 094°48'0 0.0
2018-Jun-16 04:30N 29°18' W 094°48'0 0.0
2018-Jun-16 03:58N 29°18' W 094°48'0 0.0
2018-Jun-16 03:29N 29°18' W 094°48'0 0.0
2018-Jun-16 02:59N 29°18' W 094°48'0 0.0
2018-Jun-16 02:30N 29°18' W 094°48'0 0.0
2018-Jun-16 02:00N 29°18' W 094°48'0 0.0
2018-Jun-16 01:29N 29°18' W 094°48'0 0.0
2018-Jun-16 01:00N 29°19' W 094°48'1 1.8
2018-Jun-16 00:30N 29°19' W 094°47'16 7.4
2018-Jun-15 22:18N 29°34' W 094°55'2 7.5
2018-Jun-15 22:00N 29°36' W 094°57'3 6.3
2018-Jun-15 21:30N 29°38' W 094°58'11 0.2
2018-Jun-14 01:49N 29°47' W 095°06'3 0.2
2018-Jun-13 07:06N 29°44' W 095°08'2 0.5
2018-Jun-13 03:16N 29°46' W 095°06'2 0.1
2018-Jun-12 10:07N 29°44' W 095°08'  
Track history (hours):
 
Tides and Currents Weather Stations Pressure Air Temp Water Temp Dewpoint Dewpoint Depression Visibility Wind Speed Wind Dir Waves Ship Positions

Diablo

Owner: Harley Marine Services, Inc, Seattle, WA. More information available from US FCC via Universal Licensing System and Coast Guard Vessel Documentation Center.

Last reported at 2018-Jun-20 01:48 UTC. Time now 2018-Jun-20 05:44 UTC.
Position N 29°47' W 095°06'.

Length 24 m; draft 2.8 m.

Type: Tug. MMSI: 367512880.

Date/timePositionNaut miles runAvg speedWind from/ knotsBaromVisibWave heightAir tempDewpointWater temp
2018-Jun-20 01:48N 29°47' W 095°06'0 0.0
2018-Jun-20 01:24N 29°47' W 095°06'6 1.1
2018-Jun-19 19:42N 29°42' W 095°01'1 7.1
2018-Jun-19 19:30N 29°42' W 094°60'4 7.7
2018-Jun-19 19:00N 29°38' W 094°58'3 5.3
2018-Jun-19 18:30N 29°37' W 095°00'1 1.7
2018-Jun-19 18:00N 29°37' W 095°01'0 0.0
2018-Jun-19 17:30N 29°37' W 095°01'0 0.0
2018-Jun-19 17:00N 29°37' W 095°01'0 0.0
2018-Jun-19 16:30N 29°37' W 095°01'0 0.0
2018-Jun-19 16:00N 29°37' W 095°01'0 0.0
2018-Jun-19 15:30N 29°37' W 095°01'0 0.0
2018-Jun-19 15:00N 29°37' W 095°01'0 0.0
2018-Jun-19 14:30N 29°37' W 095°01'0 0.0
2018-Jun-19 14:00N 29°37' W 095°01'0 0.1
2018-Jun-19 13:30N 29°37' W 095°01'3 5.8
2018-Jun-19 13:00N 29°37' W 094°58'4 7.1
2018-Jun-19 12:26N 29°41' W 094°59'5 0.2
2018-Jun-18 04:19N 29°44' W 095°04'3 6.0
2018-Jun-18 03:49N 29°42' W 095°01'2 6.8
2018-Jun-18 03:29N 29°41' W 094°59'5 7.7
2018-Jun-18 02:48N 29°36' W 094°57'3 8.1
2018-Jun-18 02:28N 29°34' W 094°55'4 8.3
2018-Jun-18 02:00N 29°31' W 094°53'4 8.1
2018-Jun-18 01:30N 29°27' W 094°51'4 8.0
2018-Jun-18 01:00N 29°23' W 094°49'2 4.0
2018-Jun-18 00:30N 29°22' W 094°51'2 3.5
2018-Jun-17 23:49N 29°22' W 094°53'0 0.0
2018-Jun-17 23:28N 29°22' W 094°53'0 0.0
2018-Jun-17 22:52N 29°22' W 094°53'0 0.0
2018-Jun-17 21:37N 29°22' W 094°53'0 0.0
2018-Jun-17 21:28N 29°22' W 094°53'0 0.0
2018-Jun-17 20:52N 29°22' W 094°53'0 0.0
2018-Jun-17 20:28N 29°22' W 094°53'0 0.0
2018-Jun-17 19:58N 29°22' W 094°53'0 0.0
2018-Jun-17 19:30N 29°22' W 094°53'1 1.7
2018-Jun-17 18:54N 29°23' W 094°53'3 7.9
2018-Jun-17 18:31N 29°22' W 094°49'4 7.0
2018-Jun-17 18:01N 29°19' W 094°47'1 2.6
2018-Jun-17 17:30N 29°19' W 094°48'0 0.0
2018-Jun-17 17:00N 29°19' W 094°48'0 0.0
2018-Jun-17 16:30N 29°19' W 094°48'0 0.0
2018-Jun-17 16:00N 29°19' W 094°48'1 0.1
2018-Jun-17 03:22N 29°19' W 094°47'0 0.0
2018-Jun-17 02:55N 29°19' W 094°47'0 0.0
2018-Jun-17 02:28N 29°19' W 094°47'0 0.0
2018-Jun-17 01:58N 29°19' W 094°47'0 0.0
2018-Jun-17 01:28N 29°19' W 094°47'0 0.0
2018-Jun-17 00:58N 29°19' W 094°47'0 0.0
2018-Jun-17 00:28N 29°19' W 094°47'0 0.0
2018-Jun-16 23:55N 29°19' W 094°47'0 0.0
2018-Jun-16 23:28N 29°19' W 094°47'0 0.0
2018-Jun-16 23:00N 29°19' W 094°47'0 0.0
2018-Jun-16 22:30N 29°19' W 094°47'0 0.0
2018-Jun-16 21:57N 29°19' W 094°47'0 0.0
2018-Jun-16 21:30N 29°19' W 094°47'0 0.0
2018-Jun-16 21:00N 29°19' W 094°47'0 0.0
2018-Jun-16 20:30N 29°19' W 094°47'0 0.0
2018-Jun-16 20:01N 29°19' W 094°47'0 0.0
2018-Jun-16 19:30N 29°19' W 094°47'1 2.1
2018-Jun-16 18:56N 29°19' W 094°48'0 0.0
2018-Jun-16 18:29N 29°19' W 094°48'0 0.0
2018-Jun-16 17:17N 29°19' W 094°48'0 0.0
2018-Jun-16 17:00N 29°19' W 094°48'0 0.0
2018-Jun-16 16:23N 29°18' W 094°48'0 0.0
2018-Jun-16 15:59N 29°19' W 094°48'0 0.0
2018-Jun-16 15:29N 29°19' W 094°48'0 0.0
2018-Jun-16 14:59N 29°19' W 094°48'0 0.0
2018-Jun-16 14:30N 29°19' W 094°48'0 0.0
2018-Jun-16 14:00N 29°19' W 094°48'0 0.0
2018-Jun-16 13:30N 29°19' W 094°48'0 0.0
2018-Jun-16 12:58N 29°19' W 094°48'0 0.6
2018-Jun-16 12:30N 29°19' W 094°48'0 0.2
2018-Jun-16 12:00N 29°19' W 094°48'0 0.0
2018-Jun-16 07:01N 29°18' W 094°48'0 0.0
2018-Jun-16 06:22N 29°18' W 094°48'0 0.0
2018-Jun-16 06:00N 29°18' W 094°48'0 0.0
2018-Jun-16 05:30N 29°18' W 094°48'0 0.0
2018-Jun-16 04:59N 29°18' W 094°48'0 0.0
2018-Jun-16 04:30N 29°18' W 094°48'0 0.0
2018-Jun-16 03:58N 29°18' W 094°48'0 0.0
2018-Jun-16 03:29N 29°18' W 094°48'0 0.0
2018-Jun-16 02:59N 29°18' W 094°48'0 0.0
2018-Jun-16 02:30N 29°18' W 094°48'0 0.0
2018-Jun-16 02:00N 29°18' W 094°48'0 0.0
2018-Jun-16 01:29N 29°18' W 094°48'0 0.0
2018-Jun-16 01:00N 29°19' W 094°48'1 1.8
2018-Jun-16 00:30N 29°19' W 094°47'16 7.4
2018-Jun-15 22:18N 29°34' W 094°55'2 7.5
2018-Jun-15 22:00N 29°36' W 094°57'3 6.3
2018-Jun-15 21:30N 29°38' W 094°58'11 0.2
2018-Jun-14 01:49N 29°47' W 095°06'3 0.2
2018-Jun-13 07:06N 29°44' W 095°08'2 0.5
2018-Jun-13 03:16N 29°46' W 095°06'2 0.1
2018-Jun-12 10:07N 29°44' W 095°08'  

Dump ship's entire track history